Time;durP1;ratioP1;P1;durP2;ratioP2;P2;SDS_P1;SDS_P2;PMS_P1;PMS_P2;Temp;Humidity;BMP_temperature;BMP_pressure;BME280_temperature;BME280_humidity;BME280_pressure;Samples;Min_cycle;Max_cycle;Signal;HPM_P1;HPM_P2
2021/08/19 00:00:36;;;;;;;5.88;3.05;;;21.70;86.20;;;;;;6186555;23;20011;-76
2021/08/19 00:03:03;;;;;;;3.80;2.88;;;21.70;86.30;;;;;;6186422;23;20009;-78
2021/08/19 00:05:29;;;;;;;4.65;3.10;;;21.70;86.30;;;;;;6186573;23;20004;-75
2021/08/19 00:07:54;;;;;;;10.13;3.22;;;21.70;86.60;;;;;;6186118;23;20005;-76
2021/08/19 00:10:21;;;;;;;7.97;2.45;;;21.70;86.60;;;;;;6186592;23;20352;-78
2021/08/19 00:12:47;;;;;;;5.55;2.95;;;21.70;86.90;;;;;;6186442;23;20008;-75
2021/08/19 00:15:12;;;;;;;4.00;2.67;;;21.60;86.90;;;;;;6185415;23;20088;-75
2021/08/19 00:17:38;;;;;;;6.03;3.25;;;21.60;87.20;;;;;;6185926;23;20075;-77
2021/08/19 00:20:05;;;;;;;4.35;2.92;;;21.60;87.00;;;;;;6186360;23;19997;-79
2021/08/19 00:22:32;;;;;;;3.80;2.65;;;21.60;87.20;;;;;;6186252;23;20005;-77
2021/08/19 00:24:58;;;;;;;8.07;3.13;;;21.60;87.40;;;;;;6186573;23;19997;-78
2021/08/19 00:27:24;;;;;;;7.70;2.47;;;21.60;87.50;;;;;;6186565;23;20004;-76
2021/08/19 00:29:50;;;;;;;7.03;3.00;;;21.50;87.50;;;;;;6186329;23;20012;-77
2021/08/19 00:32:16;;;;;;;6.40;2.92;;;21.50;87.70;;;;;;6186023;23;20001;-76
2021/08/19 00:34:41;;;;;;;5.18;3.17;;;21.50;87.80;;;;;;6186135;23;20065;-76
2021/08/19 00:37:08;;;;;;;5.20;3.33;;;21.40;88.00;;;;;;6185973;23;20001;-75
2021/08/19 00:39:35;;;;;;;9.30;3.30;;;21.50;88.10;;;;;;6186328;23;20001;-77
2021/08/19 00:42:00;;;;;;;4.40;2.75;;;21.40;88.10;;;;;;6185746;23;20420;-78
2021/08/19 00:44:26;;;;;;;3.70;2.75;;;21.40;88.10;;;;;;6186282;23;20035;-76
2021/08/19 00:46:52;;;;;;;8.05;3.25;;;21.40;88.20;;;;;;6185802;23;20075;-77
2021/08/19 00:49:18;;;;;;;7.35;3.38;;;21.40;88.10;;;;;;6186130;23;20428;-79
2021/08/19 00:51:49;;;;;;;4.30;3.15;;;21.40;88.10;;;;;;6159498;23;19997;-76
2021/08/19 00:54:36;;;;;;;7.35;3.03;;;21.50;88.70;;;;;;6159501;23;20420;-76
2021/08/19 00:57:05;;;;;;;5.22;3.50;;;21.50;88.60;;;;;;6185708;23;20005;-78
2021/08/19 00:59:38;;;;;;;5.05;3.20;;;21.50;88.30;;;;;;6185653;23;20029;-75
2021/08/19 01:02:04;;;;;;;10.07;3.10;;;21.50;88.10;;;;;;6185200;23;20047;-79
2021/08/19 01:04:32;;;;;;;4.45;3.42;;;21.50;87.90;;;;;;6159054;23;20005;-76
2021/08/19 01:07:01;;;;;;;8.15;3.25;;;21.50;88.10;;;;;;6185236;23;20021;-75
2021/08/19 01:09:28;;;;;;;4.38;2.72;;;21.50;89.00;;;;;;6184760;23;20013;-76
2021/08/19 01:11:54;;;;;;;4.63;3.22;;;21.60;88.30;;;;;;6185083;23;20001;-75
2021/08/19 01:14:20;;;;;;;5.18;3.50;;;21.60;88.40;;;;;;6185487;23;20005;-74
2021/08/19 01:16:46;;;;;;;5.50;3.08;;;21.50;88.70;;;;;;6185668;23;20294;-75
2021/08/19 01:19:16;;;;;;;7.47;3.20;;;21.50;88.90;;;;;;6185409;23;20017;-79
2021/08/19 01:21:43;;;;;;;4.07;2.90;;;21.50;88.90;;;;;;6185214;23;20040;-75
2021/08/19 01:24:09;;;;;;;5.28;2.95;;;21.60;88.80;;;;;;6159509;23;20004;-73
2021/08/19 01:26:35;;;;;;;7.75;3.65;;;21.60;89.70;;;;;;6185854;23;20336;-80
2021/08/19 01:29:04;;;;;;;8.88;2.75;;;21.50;89.20;;;;;;6185910;23;20011;-76
2021/08/19 01:31:31;;;;;;;5.43;3.28;;;21.50;89.60;;;;;;6185928;23;20001;-78
2021/08/19 01:33:57;;;;;;;4.63;3.38;;;21.50;90.00;;;;;;6185573;23;20064;-75
2021/08/19 01:36:23;;;;;;;14.52;3.70;;;21.40;90.20;;;;;;6185815;23;19997;-77
2021/08/19 01:38:50;;;;;;;5.55;3.45;;;21.30;90.20;;;;;;6185571;23;20012;-74
2021/08/19 01:41:16;;;;;;;5.15;3.20;;;21.20;90.10;;;;;;6185392;23;19997;-75
2021/08/19 01:43:44;;;;;;;5.38;3.15;;;21.20;90.10;;;;;;6185617;23;20383;-77
2021/08/19 01:46:12;;;;;;;8.55;3.28;;;21.20;90.20;;;;;;6185983;23;20372;-75
2021/08/19 01:48:40;;;;;;;9.35;3.08;;;21.20;90.20;;;;;;6185769;23;20005;-76
2021/08/19 01:51:10;;;;;;;6.35;3.00;;;21.20;90.30;;;;;;6186178;23;20372;-76
2021/08/19 01:53:37;;;;;;;5.60;2.97;;;21.20;90.30;;;;;;6185609;23;20012;-76
2021/08/19 01:56:03;;;;;;;9.80;3.22;;;21.10;90.60;;;;;;6186107;23;20063;-76
2021/08/19 01:58:29;;;;;;;8.73;3.03;;;21.10;90.30;;;;;;6185538;23;20009;-76
2021/08/19 02:00:55;;;;;;;5.47;2.95;;;21.10;90.20;;;;;;6185928;23;20005;-75
2021/08/19 02:03:20;;;;;;;8.27;4.05;;;21.10;90.30;;;;;;6186212;23;20420;-77
2021/08/19 02:05:48;;;;;;;7.20;3.80;;;21.10;90.50;;;;;;6185885;23;19997;-80
2021/08/19 02:08:15;;;;;;;4.95;3.00;;;21.10;90.40;;;;;;6186109;23;20320;-76
2021/08/19 02:10:41;;;;;;;5.53;3.70;;;21.10;90.50;;;;;;6185750;23;20004;-75
2021/08/19 02:13:07;;;;;;;7.60;3.30;;;21.00;90.50;;;;;;6185923;23;20001;-75
2021/08/19 02:15:32;;;;;;;7.07;3.67;;;21.00;90.60;;;;;;6186176;23;20009;-74
2021/08/19 02:17:58;;;;;;;7.13;3.50;;;21.00;90.90;;;;;;6186477;23;20082;-75
2021/08/19 02:20:24;;;;;;;7.13;3.25;;;20.90;90.60;;;;;;6185628;23;20027;-76
2021/08/19 02:22:50;;;;;;;4.35;2.95;;;20.90;90.60;;;;;;6185665;23;20001;-77
2021/08/19 02:25:17;;;;;;;7.25;3.40;;;21.00;90.60;;;;;;6186191;23;20005;-75
2021/08/19 02:27:43;;;;;;;11.65;3.45;;;20.90;90.50;;;;;;6185603;23;20420;-75
2021/08/19 02:30:11;;;;;;;6.47;3.47;;;21.00;90.90;;;;;;6185863;23;20035;-75
2021/08/19 02:32:36;;;;;;;5.40;3.67;;;21.00;90.50;;;;;;6186111;23;20328;-75
2021/08/19 02:35:03;;;;;;;5.50;3.50;;;21.00;90.40;;;;;;6185634;23;20005;-77
2021/08/19 02:37:28;;;;;;;5.28;2.90;;;21.00;90.40;;;;;;6185703;23;20001;-75
2021/08/19 02:39:55;;;;;;;6.38;3.30;;;21.00;90.30;;;;;;6185391;23;19993;-74
2021/08/19 02:42:20;;;;;;;5.53;3.00;;;21.10;90.40;;;;;;6185742;23;20001;-74
2021/08/19 02:44:46;;;;;;;5.78;3.33;;;21.00;90.30;;;;;;6185853;23;20001;-76
2021/08/19 02:47:12;;;;;;;6.53;3.47;;;21.00;90.30;;;;;;6185695;23;20416;-75
2021/08/19 02:49:38;;;;;;;9.65;3.22;;;21.00;90.40;;;;;;6185811;23;20398;-77
2021/08/19 02:52:04;;;;;;;5.07;3.35;;;21.00;90.40;;;;;;6185318;23;20079;-75
2021/08/19 02:54:30;;;;;;;5.38;3.50;;;21.00;90.40;;;;;;6186010;23;20317;-76
2021/08/19 02:56:55;;;;;;;4.05;2.83;;;21.00;90.30;;;;;;6185925;23;19997;-75
2021/08/19 02:59:21;;;;;;;6.47;3.70;;;21.00;90.20;;;;;;6185478;23;20017;-76
2021/08/19 03:01:47;;;;;;;7.38;3.70;;;21.00;90.30;;;;;;6185754;23;19997;-76
2021/08/19 03:04:12;;;;;;;7.95;3.80;;;21.00;90.30;;;;;;6185470;23;20020;-75
2021/08/19 03:06:38;;;;;;;6.97;3.30;;;21.00;90.30;;;;;;6187769;23;20001;-76
2021/08/19 03:09:04;;;;;;;6.78;2.83;;;21.00;90.20;;;;;;6187539;23;20443;-77
2021/08/19 03:11:29;;;;;;;6.10;3.17;;;21.00;90.10;;;;;;6187488;23;20440;-75
2021/08/19 03:13:55;;;;;;;6.05;2.92;;;21.00;90.00;;;;;;6187463;23;20063;-77
2021/08/19 03:16:21;;;;;;;6.00;2.92;;;21.00;90.10;;;;;;6187632;23;20005;-82
2021/08/19 03:18:47;;;;;;;5.35;2.85;;;21.00;90.10;;;;;;6187056;23;20001;-76
2021/08/19 03:21:12;;;;;;;7.35;3.47;;;21.00;90.00;;;;;;6187302;23;20028;-75
2021/08/19 03:23:38;;;;;;;5.53;3.05;;;21.00;90.00;;;;;;6187456;23;20036;-77
2021/08/19 03:26:05;;;;;;;4.55;3.05;;;21.00;90.00;;;;;;6187724;23;20071;-76
2021/08/19 03:28:32;;;;;;;8.48;3.63;;;21.00;89.90;;;;;;6187116;23;20013;-75
2021/08/19 03:30:58;;;;;;;7.45;3.20;;;21.00;89.80;;;;;;6187452;23;20009;-75
2021/08/19 03:33:24;;;;;;;5.22;3.13;;;21.00;90.00;;;;;;6187174;23;20068;-79
2021/08/19 03:35:51;;;;;;;9.70;3.30;;;21.00;89.80;;;;;;6187303;23;19997;-76
2021/08/19 03:38:16;;;;;;;5.50;3.13;;;21.00;89.60;;;;;;6187524;23;20005;-78
2021/08/19 03:40:42;;;;;;;4.28;3.10;;;21.00;89.80;;;;;;6186820;23;20092;-76
2021/08/19 03:43:08;;;;;;;4.53;2.47;;;21.00;89.90;;;;;;6187132;23;20005;-75
2021/08/19 03:45:33;;;;;;;4.57;3.22;;;21.00;89.90;;;;;;6187191;23;20005;-74
2021/08/19 03:47:59;;;;;;;3.97;2.85;;;20.90;90.00;;;;;;6186858;23;20424;-79
2021/08/19 03:50:25;;;;;;;5.25;3.25;;;21.00;89.80;;;;;;6187132;23;20005;-76
2021/08/19 03:52:51;;;;;;;5.90;3.58;;;21.00;89.50;;;;;;6187161;23;20001;-77
2021/08/19 03:55:16;;;;;;;3.80;2.90;;;21.10;89.50;;;;;;6186865;23;20327;-77
2021/08/19 03:57:42;;;;;;;5.40;3.03;;;21.00;89.20;;;;;;6187313;23;20424;-75
2021/08/19 04:00:09;;;;;;;3.83;2.83;;;21.00;89.60;;;;;;6186717;23;20095;-78
2021/08/19 04:02:34;;;;;;;7.80;3.05;;;21.00;90.00;;;;;;6186895;23;20052;-76
2021/08/19 04:05:00;;;;;;;5.20;2.88;;;21.00;90.20;;;;;;6187015;23;20001;-77
2021/08/19 04:07:26;;;;;;;7.80;3.28;;;20.90;90.20;;;;;;6186962;23;19993;-77
2021/08/19 04:09:51;;;;;;;6.07;2.83;;;20.90;90.40;;;;;;6186936;23;20096;-77
2021/08/19 04:12:17;;;;;;;5.55;2.90;;;20.90;90.40;;;;;;6186851;23;20008;-77
2021/08/19 04:14:43;;;;;;;4.20;3.67;;;20.90;90.40;;;;;;6187017;23;20012;-76
2021/08/19 04:17:08;;;;;;;14.25;3.38;;;20.90;90.40;;;;;;6186347;23;20005;-76
2021/08/19 04:19:34;;;;;;;6.45;3.33;;;20.90;90.40;;;;;;6187056;23;20005;-77
2021/08/19 04:22:00;;;;;;;4.03;3.20;;;20.90;90.40;;;;;;6187063;23;19997;-80
2021/08/19 04:24:25;;;;;;;4.60;2.90;;;21.00;90.40;;;;;;6186626;23;20012;-80
2021/08/19 04:26:51;;;;;;;5.35;2.75;;;21.00;90.00;;;;;;6186673;23;20158;-76
2021/08/19 04:29:17;;;;;;;6.65;3.60;;;21.00;90.00;;;;;;6186796;23;20369;-76
2021/08/19 04:31:42;;;;;;;9.52;3.22;;;21.00;90.00;;;;;;6186622;23;20001;-75
2021/08/19 04:34:08;;;;;;;4.85;2.70;;;21.00;90.10;;;;;;6187028;23;20088;-76
2021/08/19 04:36:34;;;;;;;6.28;3.05;;;21.10;89.80;;;;;;6187129;23;20127;-75
2021/08/19 04:39:00;;;;;;;7.20;2.88;;;21.10;89.70;;;;;;6186393;23;20005;-77
2021/08/19 04:41:26;;;;;;;3.60;2.60;;;21.10;89.60;;;;;;6186836;23;20023;-76
2021/08/19 04:43:51;;;;;;;6.30;3.08;;;21.20;89.20;;;;;;6186574;23;20037;-77
2021/08/19 04:46:17;;;;;;;3.13;2.60;;;21.30;88.80;;;;;;6186592;23;20020;-77
2021/08/19 04:48:43;;;;;;;7.07;2.92;;;21.30;89.10;;;;;;6186501;23;20032;-76
2021/08/19 04:51:08;;;;;;;6.47;3.72;;;21.40;89.60;;;;;;6160094;23;20005;-80
2021/08/19 04:53:34;;;;;;;5.85;3.47;;;21.50;89.40;;;;;;6160048;23;20001;-77
2021/08/19 04:56:00;;;;;;;6.03;3.33;;;21.60;88.80;;;;;;6186811;23;20008;-77
2021/08/19 04:58:28;;;;;;;6.97;3.30;;;21.80;88.80;;;;;;6186254;23;20371;-76
2021/08/19 05:00:56;;;;;;;18.45;4.00;;;22.10;88.80;;;;;;6185552;23;20084;-76
2021/08/19 05:03:22;;;;;;;7.68;3.10;;;22.70;87.70;;;;;;6185363;23;20092;-76
2021/08/19 05:05:48;;;;;;;4.72;3.08;;;23.20;85.60;;;;;;6185841;23;20091;-75
2021/08/19 05:08:13;;;;;;;8.65;2.97;;;23.40;84.60;;;;;;6185419;23;20388;-74
2021/08/19 05:10:39;;;;;;;4.57;3.38;;;23.50;84.40;;;;;;6185408;23;20005;-77
2021/08/19 05:13:05;;;;;;;4.47;2.80;;;24.40;82.50;;;;;;6185422;23;20089;-76
2021/08/19 05:15:30;;;;;;;6.65;3.00;;;25.60;80.10;;;;;;6185552;23;20063;-75
2021/08/19 05:17:56;;;;;;;7.45;3.22;;;26.40;78.20;;;;;;6185443;23;20336;-76
2021/08/19 05:20:22;;;;;;;5.00;2.65;;;26.80;77.10;;;;;;6185512;23;20001;-82
2021/08/19 05:22:48;;;;;;;10.63;3.38;;;27.60;76.70;;;;;;6185031;23;20114;-82
2021/08/19 05:25:14;;;;;;;3.35;2.45;;;29.10;74.40;;;;;;6185006;23;20005;-82
2021/08/19 05:27:39;;;;;;;5.63;2.58;;;30.60;71.50;;;;;;6184909;23;20446;-82
2021/08/19 05:30:07;;;;;;;6.10;2.63;;;30.40;69.80;;;;;;6185167;23;20013;-85
2021/08/19 05:32:32;;;;;;;7.88;3.22;;;29.00;71.60;;;;;;6159305;23;20005;-84
2021/08/19 05:35:01;;;;;;;9.73;2.72;;;27.70;74.00;;;;;;6186492;23;20012;-82
2021/08/19 05:37:27;;;;;;;6.53;3.00;;;26.90;75.90;;;;;;6186312;23;20424;-86
2021/08/19 05:43:15;;;;;;;5.53;3.28;;;26.10;78.00;;;;;;6186472;23;20399;-86
2021/08/19 05:45:41;;;;;;;5.43;2.70;;;26.10;77.90;;;;;;6186067;23;19997;-85
2021/08/19 05:48:07;;;;;;;3.38;2.60;;;26.40;77.30;;;;;;6185876;23;20005;-85
2021/08/19 05:50:36;;;;;;;4.40;3.13;;;28.60;74.50;;;;;;6186652;23;20347;-86
2021/08/19 05:53:02;;;;;;;3.50;2.35;;;30.90;70.40;;;;;;6186587;23;20051;-82
2021/08/19 05:55:28;;;;;;;5.60;2.92;;;32.30;67.40;;;;;;6186168;23;20009;-84
2021/08/19 05:57:53;;;;;;;4.55;3.10;;;33.60;65.30;;;;;;6186188;23;20020;-81
2021/08/19 06:00:21;;;;;;;8.02;3.30;;;33.90;63.90;;;;;;6186322;23;20001;-85
2021/08/19 06:02:48;;;;;;;8.02;2.63;;;34.60;63.20;;;;;;6186136;23;20004;-80
2021/08/19 06:05:14;;;;;;;8.82;3.47;;;34.40;62.90;;;;;;6186364;23;20013;-86
2021/08/19 06:07:40;;;;;;;8.15;3.63;;;34.70;62.70;;;;;;6186600;23;20306;-85
2021/08/19 06:10:06;;;;;;;7.63;2.92;;;35.10;62.10;;;;;;6186481;23;20339;-82
2021/08/19 06:12:32;;;;;;;4.32;2.70;;;34.90;61.50;;;;;;6185889;23;20008;-85
2021/08/19 06:14:57;;;;;;;3.67;2.30;;;34.70;61.80;;;;;;6186149;23;20001;-87
2021/08/19 06:17:23;;;;;;;4.68;2.28;;;34.20;62.00;;;;;;6160318;23;20059;-85
2021/08/19 06:19:49;;;;;;;6.47;2.78;;;33.80;62.90;;;;;;6186175;23;20004;-84
2021/08/19 06:22:15;;;;;;;3.70;2.28;;;34.00;63.00;;;;;;6186283;23;20440;-85
2021/08/19 06:24:40;;;;;;;9.40;3.33;;;34.30;62.70;;;;;;6187097;23;20054;-85
2021/08/19 06:27:06;;;;;;;6.47;2.58;;;34.70;61.80;;;;;;6186026;23;20028;-85
2021/08/19 06:29:32;;;;;;;5.03;2.60;;;34.80;60.90;;;;;;6186078;23;20084;-82
2021/08/19 06:31:57;;;;;;;5.53;2.40;;;35.10;61.30;;;;;;6159191;23;20009;-81
2021/08/19 06:34:23;;;;;;;4.88;2.60;;;35.20;60.90;;;;;;6185822;23;20328;-81
2021/08/19 06:36:49;;;;;;;3.42;2.15;;;35.10;60.90;;;;;;6185844;23;20048;-82
2021/08/19 06:39:14;;;;;;;4.25;2.20;;;35.50;59.90;;;;;;6185578;23;20072;-85
2021/08/19 06:41:40;;;;;;;7.43;2.10;;;35.70;59.60;;;;;;6185787;23;20505;-81
2021/08/19 06:44:06;;;;;;;12.88;3.47;;;36.10;59.50;;;;;;6185936;23;20047;-80
2021/08/19 06:46:32;;;;;;;4.40;2.08;;;36.50;59.20;;;;;;6185804;23;20328;-81
2021/08/19 06:48:57;;;;;;;3.70;2.72;;;36.50;58.80;;;;;;6185728;23;20046;-82
2021/08/19 06:51:23;;;;;;;5.28;3.13;;;36.80;58.60;;;;;;6185344;23;20305;-82
2021/08/19 06:53:49;;;;;;;3.15;2.35;;;37.10;58.40;;;;;;6186099;23;20063;-80
2021/08/19 06:56:15;;;;;;;4.70;2.33;;;37.50;58.50;;;;;;6185765;23;20483;-81
2021/08/19 06:58:40;;;;;;;5.82;2.22;;;38.20;56.80;;;;;;6185915;23;20017;-84
2021/08/19 07:01:07;;;;;;;9.68;2.13;;;38.30;56.80;;;;;;6159780;23;20017;-84
2021/08/19 07:03:33;;;;;;;13.85;3.33;;;38.70;56.40;;;;;;6185494;23;20444;-82
2021/08/19 07:05:59;;;;;;;4.68;2.22;;;38.80;56.70;;;;;;6185864;23;20001;-86
2021/08/19 07:08:25;;;;;;;14.35;2.50;;;38.70;55.90;;;;;;6186009;23;20013;-85
2021/08/19 07:10:51;;;;;;;2.67;2.00;;;38.90;56.00;;;;;;6186106;23;20069;-83
2021/08/19 07:13:16;;;;;;;4.95;2.20;;;38.80;55.50;;;;;;6185684;23;20436;-82
2021/08/19 07:15:44;;;;;;;5.43;1.95;;;39.10;55.10;;;;;;6185507;23;20036;-83
2021/08/19 07:18:11;;;;;;;5.97;2.50;;;39.30;54.90;;;;;;6185531;23;20083;-85
2021/08/19 07:20:36;;;;;;;4.65;2.30;;;39.70;54.90;;;;;;6185631;23;20001;-83
2021/08/19 07:23:02;;;;;;;4.15;2.25;;;40.00;54.30;;;;;;6159034;23;20055;-85
2021/08/19 07:25:28;;;;;;;4.55;2.00;;;40.30;54.40;;;;;;6185585;23;19997;-81
2021/08/19 07:27:53;;;;;;;5.43;1.70;;;39.60;53.80;;;;;;6185561;23;20005;-81
2021/08/19 07:30:19;;;;;;;3.95;1.70;;;39.10;54.60;;;;;;6185292;23;20015;-84
2021/08/19 07:32:45;;;;;;;5.40;2.40;;;38.90;55.00;;;;;;6185562;23;20428;-85
2021/08/19 07:35:12;;;;;;;3.10;1.65;;;39.30;54.60;;;;;;6185616;23;20032;-85
2021/08/19 07:37:52;;;;;;;8.82;1.90;;;38.90;54.60;;;;;;6185580;23;20028;-86
2021/08/19 07:40:20;;;;;;;2.28;1.80;;;38.80;54.40;;;;;;6185552;23;20459;-86
2021/08/19 07:42:46;;;;;;;9.23;1.92;;;38.30;54.60;;;;;;6186008;23;20005;-84
2021/08/19 07:45:14;;;;;;;4.18;2.42;;;38.00;55.40;;;;;;6159821;23;20013;-84
2021/08/19 07:47:40;;;;;;;2.22;1.90;;;38.10;55.00;;;;;;6185523;23;20420;-85
2021/08/19 07:50:09;;;;;;;3.47;2.00;;;38.00;54.90;;;;;;6186160;23;20020;-88
2021/08/19 07:52:36;;;;;;;2.97;2.03;;;38.40;54.70;;;;;;6186426;23;20367;-82
2021/08/19 07:55:02;;;;;;;2.03;1.83;;;38.60;54.20;;;;;;6138468;23;20088;-84
2021/08/19 07:57:49;;;;;;;5.28;2.50;;;38.50;53.70;;;;;;6188059;23;20004;-84
2021/08/19 08:00:20;;;;;;;3.75;2.10;;;39.10;53.90;;;;;;6186835;23;20497;-83
2021/08/19 08:02:46;;;;;;;;;;;39.10;53.90;;;;;;6187730;23;20005;-87
2021/08/19 08:05:11;;;;;;;3.47;1.90;;;39.40;53.60;;;;;;6161179;23;19900;-88
2021/08/19 08:07:38;;;;;;;2.50;1.77;;;39.30;52.70;;;;;;6187162;23;20076;-84
2021/08/19 08:10:06;;;;;;;3.08;1.90;;;39.40;52.90;;;;;;6187018;23;20031;-85
2021/08/19 08:12:32;;;;;;;2.67;1.63;;;40.10;52.50;;;;;;6187282;23;19993;-86
2021/08/19 08:14:58;;;;;;;5.78;1.90;;;41.00;52.00;;;;;;6187606;23;20059;-88
2021/08/19 08:17:24;;;;;;;5.55;1.88;;;41.70;51.20;;;;;;6187789;23;20001;-85
2021/08/19 08:19:49;;;;;;;5.75;1.75;;;41.20;50.80;;;;;;6188096;23;20332;-85
2021/08/19 08:22:16;;;;;;;4.07;2.22;;;41.30;51.30;;;;;;6187298;23;20005;-85
2021/08/19 08:24:42;;;;;;;7.90;1.85;;;41.60;51.10;;;;;;6187159;23;20001;-84
2021/08/19 08:27:08;;;;;;;2.58;1.95;;;41.90;50.60;;;;;;6187071;23;20029;-84
2021/08/19 08:29:35;;;;;;;2.70;1.73;;;41.30;50.60;;;;;;6186704;23;20017;-87
2021/08/19 08:32:05;;;;;;;1.55;1.30;;;40.60;51.00;;;;;;6187123;23;20076;-85
2021/08/19 08:34:35;;;;;;;2.33;1.65;;;40.50;51.10;;;;;;6187874;23;20008;-89
2021/08/19 08:37:02;;;;;;;2.35;1.60;;;39.90;51.20;;;;;;6187617;23;20001;-86
2021/08/19 08:39:29;;;;;;;5.13;2.00;;;39.60;51.80;;;;;;6187989;23;19997;-83
2021/08/19 08:41:57;;;;;;;2.47;1.85;;;39.30;52.20;;;;;;6187524;23;20031;-86
2021/08/19 08:44:27;;;;;;;3.60;1.98;;;38.90;52.60;;;;;;6187264;23;20001;-84
2021/08/19 08:46:54;;;;;;;2.88;1.65;;;37.90;53.30;;;;;;6187618;23;20055;-87
2021/08/19 08:49:20;;;;;;;7.95;1.83;;;37.10;53.90;;;;;;6188445;23;20016;-86
2021/08/19 08:51:52;;;;;;;5.85;2.20;;;36.30;54.80;;;;;;6186855;23;20004;-88
2021/08/19 08:54:19;;;;;;;4.57;2.47;;;35.60;55.00;;;;;;6187103;23;20001;-85
2021/08/19 08:56:48;;;;;;;5.18;1.98;;;35.10;55.90;;;;;;6187187;23;20412;-84
2021/08/19 09:02:44;;;;;;;2.00;1.80;;;34.50;56.90;;;;;;6184411;23;20024;-87
2021/08/19 09:05:18;;;;;;;3.08;2.20;;;33.70;57.30;;;;;;6186393;23;20009;-85
2021/08/19 09:07:50;;;;;;;5.18;2.38;;;33.60;58.10;;;;;;6186855;23;20005;-87
2021/08/19 09:10:18;;;;;;;2.92;1.90;;;33.50;57.60;;;;;;6188740;23;20421;-85
2021/08/19 09:12:44;;;;;;;6.60;2.20;;;33.00;57.90;;;;;;6188897;23;19997;-86
2021/08/19 09:15:13;;;;;;;2.88;2.10;;;32.60;58.70;;;;;;6188236;23;20077;-87
2021/08/19 09:17:43;;;;;;;2.97;2.15;;;32.40;58.80;;;;;;6188452;23;19993;-84
2021/08/19 09:20:11;;;;;;;3.83;2.50;;;32.50;58.80;;;;;;6188411;23;19997;-87
2021/08/19 09:23:08;;;;;;;4.60;2.38;;;32.40;58.40;;;;;;6187797;23;20009;-86
2021/08/19 09:25:44;;;;;;;4.68;2.05;;;32.50;58.80;;;;;;6188139;23;20001;-86
2021/08/19 09:28:22;;;;;;;2.58;2.15;;;32.40;58.70;;;;;;6187771;23;20065;-86
2021/08/19 09:31:08;;;;;;;5.15;1.98;;;32.20;59.20;;;;;;6187628;23;20004;-86
2021/08/19 09:33:40;;;;;;;3.55;2.17;;;32.00;59.40;;;;;;6186896;23;20428;-87
2021/08/19 09:36:06;;;;;;;3.85;2.42;;;32.00;59.80;;;;;;6187060;23;20028;-84
2021/08/19 09:38:39;;;;;;;6.10;2.60;;;32.10;62.50;;;;;;6186504;23;20001;-85
2021/08/19 09:41:05;;;;;;;4.43;2.35;;;32.20;62.40;;;;;;6160274;23;20005;-83
2021/08/19 09:43:37;;;;;;;3.72;2.22;;;32.30;61.50;;;;;;6186420;23;20004;-86
2021/08/19 09:46:02;;;;;;;4.80;3.50;;;32.40;61.10;;;;;;6186744;23;20005;-85
2021/08/19 09:48:29;;;;;;;5.28;2.88;;;32.40;61.10;;;;;;6186778;23;20020;-87
2021/08/19 09:51:11;;;;;;;3.67;2.28;;;32.50;60.60;;;;;;6160060;23;20048;-86
2021/08/19 09:53:48;;;;;;;3.63;2.17;;;32.50;60.00;;;;;;6186230;23;20013;-86
2021/08/19 09:56:25;;;;;;;2.08;1.88;;;32.40;59.90;;;;;;6184969;23;20016;-79
2021/08/19 09:58:53;;;;;;;6.63;2.10;;;32.30;59.50;;;;;;6184855;23;20072;-80
2021/08/19 10:01:19;;;;;;;4.22;2.30;;;32.00;61.50;;;;;;6186120;23;20009;-82
2021/08/19 10:03:45;;;;;;;6.38;2.22;;;31.80;61.90;;;;;;6185647;23;20032;-77
2021/08/19 10:06:11;;;;;;;5.97;2.33;;;31.40;62.80;;;;;;6186318;23;20375;-85
2021/08/19 10:08:37;;;;;;;14.35;2.95;;;31.30;63.60;;;;;;6185904;23;20084;-79
2021/08/19 10:11:03;;;;;;;6.28;2.58;;;31.60;62.70;;;;;;6185785;23;20428;-80
2021/08/19 10:13:31;;;;;;;4.43;2.70;;;31.90;62.90;;;;;;6185318;23;20001;-79
2021/08/19 10:15:59;;;;;;;4.68;2.65;;;32.30;62.70;;;;;;6184682;23;20048;-88
2021/08/19 10:18:31;;;;;;;2.83;2.17;;;32.30;63.70;;;;;;6185101;23;20032;-77
2021/08/19 10:21:09;;;;;;;7.18;2.88;;;32.20;64.30;;;;;;6184518;23;20004;-76
2021/08/19 10:23:38;;;;;;;5.25;2.22;;;32.00;65.60;;;;;;6184947;23;20013;-82
2021/08/19 10:26:09;;;;;;;5.72;2.42;;;31.80;68.80;;;;;;6185022;23;20340;-77
2021/08/19 10:28:53;;;;;;;5.38;2.55;;;31.60;70.80;;;;;;6185053;23;20032;-77
2021/08/19 10:31:55;;;;;;;12.40;3.05;;;31.60;70.10;;;;;;6185352;23;20080;-77
2021/08/19 10:34:58;;;;;;;3.90;2.30;;;31.80;69.90;;;;;;6185856;23;20024;-82
2021/08/19 10:37:48;;;;;;;3.75;2.35;;;32.00;69.70;;;;;;6184182;23;20012;-79
2021/08/19 10:40:20;;;;;;;3.80;2.22;;;32.10;67.40;;;;;;6184440;23;20108;-79
2021/08/19 10:42:47;;;;;;;3.38;2.47;;;32.10;66.20;;;;;;6184512;23;20076;-79
2021/08/19 10:45:28;;;;;;;8.05;2.38;;;32.10;66.20;;;;;;6184836;23;19997;-77
2021/08/19 10:48:09;;;;;;;4.20;2.20;;;32.30;66.00;;;;;;6185184;23;20001;-77
2021/08/19 10:50:38;;;;;;;4.82;2.50;;;32.30;64.40;;;;;;6185342;23;20013;-77
2021/08/19 10:53:10;;;;;;;3.28;2.20;;;32.40;63.60;;;;;;6185159;23;19998;-77
2021/08/19 10:55:47;;;;;;;3.65;2.55;;;32.30;63.50;;;;;;6185042;23;20080;-80
2021/08/19 10:58:30;;;;;;;3.97;2.22;;;32.20;67.00;;;;;;6184413;23;20072;-84
2021/08/19 11:01:01;;;;;;;5.03;2.33;;;32.20;67.30;;;;;;6185273;23;20001;-84
2021/08/19 11:03:39;;;;;;;5.10;2.28;;;32.20;65.70;;;;;;6185381;23;20021;-84
2021/08/19 11:06:19;;;;;;;4.18;2.70;;;32.00;65.00;;;;;;6184746;23;20009;-84
2021/08/19 11:08:58;;;;;;;3.90;2.22;;;31.90;65.50;;;;;;6185531;23;20009;-85
2021/08/19 11:11:30;;;;;;;5.00;2.60;;;31.90;66.60;;;;;;6185446;23;20447;-78
2021/08/19 11:14:20;;;;;;;6.05;2.70;;;32.20;67.30;;;;;;6185407;23;20001;-78
2021/08/19 11:16:58;;;;;;;3.47;2.28;;;32.10;68.60;;;;;;6185096;23;20500;-86
2021/08/19 11:19:26;;;;;;;2.35;2.10;;;32.00;67.00;;;;;;6185343;23;19997;-85
2021/08/19 11:22:03;;;;;;;2.95;2.33;;;31.90;65.90;;;;;;6184171;23;20011;-77
2021/08/19 11:24:34;;;;;;;4.82;2.30;;;31.70;67.60;;;;;;6184501;23;20005;-77
2021/08/19 11:27:00;;;;;;;;;;;31.80;67.20;;;;;;6186606;23;20005;-79
2021/08/19 11:29:46;;;;;;;3.45;2.40;;;31.90;66.90;;;;;;6186078;23;19954;-80
2021/08/19 11:32:16;;;;;;;8.82;2.67;;;31.80;66.70;;;;;;6185344;23;20005;-76
2021/08/19 11:34:50;;;;;;;2.72;2.40;;;31.80;66.40;;;;;;6186431;23;20069;-84
2021/08/19 11:37:34;;;;;;;3.15;2.22;;;31.60;66.30;;;;;;6186167;23;20449;-77
2021/08/19 11:40:00;;;;;;;3.70;2.60;;;31.60;67.50;;;;;;6186036;23;20001;-78
2021/08/19 11:42:33;;;;;;;5.05;2.20;;;31.50;67.20;;;;;;6187350;23;20024;-87
2021/08/19 11:45:19;;;;;;;8.13;2.50;;;31.50;67.00;;;;;;6186884;23;20009;-85
2021/08/19 11:47:46;;;;;;;3.22;2.40;;;31.50;66.40;;;;;;6186447;23;20012;-78
2021/08/19 11:50:12;;;;;;;9.02;2.58;;;31.50;67.70;;;;;;6186424;23;20324;-79
2021/08/19 11:52:39;;;;;;;2.67;2.10;;;31.40;68.10;;;;;;6185861;23;20120;-81
2021/08/19 11:55:05;;;;;;;8.05;2.60;;;31.20;68.20;;;;;;6186018;23;20012;-83
2021/08/19 11:57:31;;;;;;;6.30;2.72;;;31.20;70.60;;;;;;6186081;23;20309;-78
2021/08/19 12:00:02;;;;;;;6.22;2.20;;;31.00;71.50;;;;;;6185960;23;20060;-79
2021/08/19 12:02:28;;;;;;;6.25;2.50;;;31.00;71.90;;;;;;6185617;23;20494;-78
2021/08/19 12:05:11;;;;;;;3.88;2.30;;;30.90;71.30;;;;;;6186537;23;20001;-84
2021/08/19 12:07:41;;;;;;;6.80;2.50;;;30.90;70.30;;;;;;6185855;23;20011;-78
2021/08/19 12:10:08;;;;;;;6.55;2.45;;;30.70;69.60;;;;;;6160065;23;20096;-78
2021/08/19 12:12:37;;;;;;;2.83;2.45;;;30.60;70.40;;;;;;6185935;23;19997;-78
2021/08/19 12:15:05;;;;;;;4.00;2.55;;;30.50;70.90;;;;;;6185959;23;20047;-85
2021/08/19 12:17:31;;;;;;;6.65;2.28;;;30.50;70.30;;;;;;6186000;23;20016;-78
2021/08/19 12:20:19;;;;;;;3.42;2.08;;;30.60;70.10;;;;;;6185525;23;20359;-84
2021/08/19 12:22:45;;;;;;;4.40;2.45;;;30.70;69.60;;;;;;6185610;23;20032;-81
2021/08/19 12:25:19;;;;;;;5.72;2.55;;;30.90;68.60;;;;;;6186651;23;20055;-84
2021/08/19 12:28:09;;;;;;;6.32;2.05;;;30.90;66.60;;;;;;6185272;23;20429;-80
2021/08/19 12:30:36;;;;;;;4.93;2.40;;;31.00;66.50;;;;;;6164801;23;20073;-89
2021/08/19 12:33:05;;;;;;;3.60;2.33;;;31.00;66.00;;;;;;6185680;23;20084;-86
2021/08/19 12:35:31;;;;;;;6.55;2.35;;;30.90;64.80;;;;;;6184544;23;20032;-78
2021/08/19 12:37:59;;;;;;;10.07;2.38;;;30.90;66.50;;;;;;6184889;23;20001;-84
2021/08/19 12:40:30;;;;;;;5.13;2.45;;;30.90;67.60;;;;;;6186336;23;20016;-85
2021/08/19 12:43:06;;;;;;;;;;;30.90;68.80;;;;;;6186500;23;20301;-89
2021/08/19 12:45:32;;;;;;;8.95;2.83;;;30.90;69.60;;;;;;6186754;23;19900;-81
2021/08/19 12:48:08;;;;;;;4.07;2.40;;;30.90;69.30;;;;;;6186514;23;20432;-91
2021/08/19 12:50:35;;;;;;;4.82;2.25;;;30.90;68.00;;;;;;6186649;23;20028;-78
2021/08/19 12:53:08;;;;;;;9.20;2.40;;;30.80;67.60;;;;;;6186872;23;20068;-79
2021/08/19 12:55:34;;;;;;;18.42;5.95;;;30.70;67.80;;;;;;6186675;23;20032;-77
2021/08/19 12:58:01;;;;;;;13.35;5.75;;;30.80;68.20;;;;;;6186439;23;20001;-90
2021/08/19 13:00:29;;;;;;;9.95;4.78;;;30.80;68.80;;;;;;6186745;23;20075;-89